Time;durP1;ratioP1;P1;durP2;ratioP2;P2;SDS_P1;SDS_P2;PMS_P1;PMS_P2;Temp;Humidity;BMP_temperature;BMP_pressure;BME280_temperature;BME280_humidity;BME280_pressure;Samples;Min_cycle;Max_cycle;Signal;HPM_P1;HPM_P2
2022/12/19 00:01:54;;;;;;;1.25;1.00;;;;;;;;;;4893521;29;20203;-85
2022/12/19 00:04:23;;;;;;;0.70;0.70;;;;;;;;;;4892800;29;20222;-83
2022/12/19 00:06:50;;;;;;;0.70;0.70;;;;;;;;;;4883530;29;20207;-84
2022/12/19 00:09:17;;;;;;;1.45;1.35;;;;;;;;;;4894024;29;20243;-84
2022/12/19 00:11:43;;;;;;;0.90;0.90;;;;;;;;;;4882656;29;20205;-84
2022/12/19 00:14:10;;;;;;;0.60;0.60;;;;;;;;;;4906663;29;20250;-84
2022/12/19 00:16:37;;;;;;;0.70;0.70;;;;;;;;;;4896609;29;20195;-85
2022/12/19 00:19:05;;;;;;;2.30;2.20;;;;;;;;;;4888327;29;20719;-83
2022/12/19 00:21:33;;;;;;;0.60;0.60;;;;;;;;;;4894872;29;20226;-80
2022/12/19 00:24:01;;;;;;;0.60;0.60;;;;;;;;;;4882765;29;20199;-81
2022/12/19 00:26:38;;;;;;;2.75;1.20;;;;;;;;;;4899991;29;20278;-87
2022/12/19 00:29:06;;;;;;;0.70;0.70;;;;;;;;;;4882873;29;20625;-85
2022/12/19 00:31:40;;;;;;;0.60;0.60;;;;;;;;;;4893827;29;20198;-84
2022/12/19 00:34:08;;;;;;;0.80;0.80;;;;;;;;;;4893745;29;20219;-80
2022/12/19 00:36:37;;;;;;;2.03;1.92;;;;;;;;;;4889908;29;20191;-83
2022/12/19 00:39:06;;;;;;;0.70;0.70;;;;;;;;;;4880679;29;20215;-85
2022/12/19 00:41:35;;;;;;;0.90;0.90;;;;;;;;;;4901033;29;20211;-83
2022/12/19 00:44:04;;;;;;;0.90;0.90;;;;;;;;;;4895992;29;20209;-84
2022/12/19 00:46:33;;;;;;;0.75;0.75;;;;;;;;;;4892975;29;20251;-84
2022/12/19 00:49:04;;;;;;;0.70;0.70;;;;;;;;;;4902495;29;20239;-84
2022/12/19 00:51:31;;;;;;;0.60;0.60;;;;;;;;;;4899128;29;20246;-80
2022/12/19 00:53:59;;;;;;;0.93;0.93;;;;;;;;;;4898744;29;20219;-84
2022/12/19 00:56:30;;;;;;;0.70;0.68;;;;;;;;;;4901329;29;20210;-85
2022/12/19 00:59:00;;;;;;;0.95;0.95;;;;;;;;;;4899125;29;20211;-85
2022/12/19 01:01:29;;;;;;;0.98;0.98;;;;;;;;;;4896325;29;20664;-84
2022/12/19 01:03:58;;;;;;;1.65;1.55;;;;;;;;;;4898789;29;20231;-86
2022/12/19 01:06:45;;;;;;;0.60;0.60;;;;;;;;;;4894934;29;20545;-83
2022/12/19 01:09:14;;;;;;;1.45;1.15;;;;;;;;;;4895092;29;20206;-81
2022/12/19 01:14:27;;;;;;;2.28;2.08;;;;;;;;;;4896875;29;20211;-83
2022/12/19 01:16:54;;;;;;;1.13;1.08;;;;;;;;;;4904906;29;20218;-82
2022/12/19 01:19:22;;;;;;;2.65;2.45;;;;;;;;;;4895425;29;20211;-83
2022/12/19 01:21:50;;;;;;;0.70;0.70;;;;;;;;;;4897997;29;20689;-84
2022/12/19 01:24:18;;;;;;;2.67;1.15;;;;;;;;;;4903342;29;20225;-83
2022/12/19 01:26:48;;;;;;;0.60;0.60;;;;;;;;;;4893767;29;20695;-80
2022/12/19 01:29:15;;;;;;;0.60;0.60;;;;;;;;;;4892301;29;20524;-81
2022/12/19 01:31:43;;;;;;;1.38;1.27;;;;;;;;;;4888112;29;20203;-83
2022/12/19 01:34:10;;;;;;;0.60;0.60;;;;;;;;;;4893004;29;20291;-81
2022/12/19 01:36:37;;;;;;;0.60;0.60;;;;;;;;;;4896552;29;20354;-81
2022/12/19 01:39:05;;;;;;;0.60;0.60;;;;;;;;;;4893681;29;20199;-82
2022/12/19 01:41:34;;;;;;;0.60;0.60;;;;;;;;;;4901379;29;20679;-81
2022/12/19 01:44:02;;;;;;;0.80;0.80;;;;;;;;;;4911918;29;20243;-81
2022/12/19 01:46:32;;;;;;;0.70;0.70;;;;;;;;;;4886270;29;20203;-82
2022/12/19 01:49:00;;;;;;;0.60;0.60;;;;;;;;;;4898366;29;20318;-82
2022/12/19 01:51:33;;;;;;;1.33;1.23;;;;;;;;;;4907680;29;20213;-80
2022/12/19 01:54:03;;;;;;;1.55;1.10;;;;;;;;;;4889938;29;20263;-83
2022/12/19 01:56:31;;;;;;;0.70;0.70;;;;;;;;;;4891022;29;20200;-79
2022/12/19 01:59:01;;;;;;;1.55;1.45;;;;;;;;;;4902527;29;20211;-82
2022/12/19 02:01:37;;;;;;;1.45;1.35;;;;;;;;;;4893382;29;20217;-81
2022/12/19 02:04:23;;;;;;;0.60;0.60;;;;;;;;;;4891756;29;20291;-79
2022/12/19 02:06:54;;;;;;;1.50;1.40;;;;;;;;;;4905715;29;20309;-78
2022/12/19 02:09:26;;;;;;;1.02;1.02;;;;;;;;;;4896989;29;20227;-80
2022/12/19 02:11:53;;;;;;;1.05;0.95;;;;;;;;;;4897554;29;20259;-79
2022/12/19 02:14:25;;;;;;;0.60;0.60;;;;;;;;;;4882731;29;20255;-79
2022/12/19 02:17:03;;;;;;;0.60;0.60;;;;;;;;;;4888482;29;20208;-80
2022/12/19 02:20:01;;;;;;;0.90;0.90;;;;;;;;;;4905127;29;20205;-80
2022/12/19 02:22:43;;;;;;;5.90;1.65;;;;;;;;;;4885579;29;20282;-77
2022/12/19 02:25:32;;;;;;;0.68;0.65;;;;;;;;;;4790712;29;3025447;-77
2022/12/19 02:28:17;;;;;;;0.80;0.80;;;;;;;;;;4876550;29;20207;-78
2022/12/19 02:30:56;;;;;;;0.70;0.70;;;;;;;;;;4909826;29;20208;-77
2022/12/19 02:33:40;;;;;;;3.55;1.70;;;;;;;;;;4909019;29;20265;-77
2022/12/19 02:36:18;;;;;;;1.55;1.42;;;;;;;;;;4894518;29;20606;-78
2022/12/19 02:38:53;;;;;;;0.60;0.60;;;;;;;;;;4877763;29;20199;-79
2022/12/19 02:41:28;;;;;;;0.70;0.70;;;;;;;;;;4906626;29;20202;-77
2022/12/19 02:44:04;;;;;;;1.52;1.42;;;;;;;;;;4873975;29;20207;-78
2022/12/19 02:46:35;;;;;;;0.60;0.60;;;;;;;;;;4881274;29;20203;-75
2022/12/19 02:49:10;;;;;;;0.70;0.70;;;;;;;;;;4879184;29;20234;-75
2022/12/19 02:52:10;;;;;;;6.80;1.25;;;;;;;;;;4876918;29;20686;-77
2022/12/19 02:54:41;;;;;;;1.65;1.55;;;;;;;;;;4879095;29;20306;-75
2022/12/19 02:57:20;;;;;;;0.90;0.90;;;;;;;;;;4883987;29;20259;-78
2022/12/19 02:59:55;;;;;;;0.98;0.98;;;;;;;;;;4891981;29;20203;-78
2022/12/19 03:02:32;;;;;;;0.82;0.82;;;;;;;;;;4895237;29;20227;-76
2022/12/19 03:05:05;;;;;;;0.60;0.60;;;;;;;;;;4891050;29;20232;-77
2022/12/19 03:07:42;;;;;;;0.70;0.70;;;;;;;;;;4890521;29;20191;-77
2022/12/19 03:10:19;;;;;;;0.60;0.60;;;;;;;;;;4905185;29;20191;-76
2022/12/19 03:12:50;;;;;;;1.27;1.23;;;;;;;;;;4887868;29;20206;-77
2022/12/19 03:15:25;;;;;;;0.60;0.60;;;;;;;;;;4903764;29;20222;-78
2022/12/19 03:17:57;;;;;;;0.90;0.90;;;;;;;;;;4891828;29;20279;-77
2022/12/19 03:20:33;;;;;;;0.60;0.60;;;;;;;;;;4889079;29;20207;-77
2022/12/19 03:23:05;;;;;;;0.98;0.88;;;;;;;;;;4887490;29;20213;-76
2022/12/19 03:25:37;;;;;;;5.05;1.70;;;;;;;;;;4892531;29;20294;-78
2022/12/19 03:28:10;;;;;;;0.60;0.60;;;;;;;;;;4898279;29;20290;-79
2022/12/19 03:30:40;;;;;;;3.83;1.92;;;;;;;;;;4895463;29;20679;-77
2022/12/19 03:33:15;;;;;;;1.25;1.15;;;;;;;;;;4890312;29;20730;-76
2022/12/19 03:35:48;;;;;;;0.90;0.90;;;;;;;;;;4877882;29;20222;-76
2022/12/19 03:38:20;;;;;;;0.70;0.70;;;;;;;;;;4895738;29;20214;-77
2022/12/19 03:40:50;;;;;;;0.75;0.75;;;;;;;;;;4908890;29;20207;-79
2022/12/19 03:43:21;;;;;;;0.90;0.90;;;;;;;;;;4894119;29;20676;-78
2022/12/19 03:45:53;;;;;;;1.10;1.00;;;;;;;;;;4895084;29;20243;-78
2022/12/19 03:48:28;;;;;;;1.00;0.90;;;;;;;;;;4902800;29;20707;-81
2022/12/19 03:51:01;;;;;;;3.50;1.67;;;;;;;;;;4903923;29;20203;-79
2022/12/19 03:53:37;;;;;;;0.60;0.60;;;;;;;;;;4904605;29;20210;-78
2022/12/19 03:56:10;;;;;;;0.70;0.60;;;;;;;;;;4884413;29;20227;-77
2022/12/19 03:58:38;;;;;;;0.60;0.60;;;;;;;;;;4890084;29;20223;-79
2022/12/19 04:01:05;;;;;;;0.60;0.60;;;;;;;;;;4888519;29;20191;-78
2022/12/19 04:03:34;;;;;;;0.60;0.60;;;;;;;;;;4890009;29;20239;-76
2022/12/19 04:06:01;;;;;;;0.60;0.60;;;;;;;;;;4893828;29;20714;-76
2022/12/19 04:08:29;;;;;;;0.70;0.60;;;;;;;;;;4888894;29;20206;-77
2022/12/19 04:10:58;;;;;;;1.20;1.15;;;;;;;;;;4894264;29;20199;-77
2022/12/19 04:13:28;;;;;;;1.65;1.55;;;;;;;;;;4890510;29;20230;-78
2022/12/19 04:15:59;;;;;;;0.93;0.93;;;;;;;;;;4889703;29;20274;-76
2022/12/19 04:18:26;;;;;;;0.60;0.50;;;;;;;;;;4878945;29;20260;-76
2022/12/19 04:20:57;;;;;;;3.75;2.03;;;;;;;;;;4880722;29;20210;-76
2022/12/19 04:23:27;;;;;;;0.90;0.90;;;;;;;;;;4887510;29;20274;-75
2022/12/19 04:25:57;;;;;;;0.80;0.80;;;;;;;;;;4887495;29;20243;-75
2022/12/19 04:28:28;;;;;;;0.60;0.60;;;;;;;;;;4901993;29;20208;-75
2022/12/19 04:30:56;;;;;;;0.80;0.80;;;;;;;;;;4895165;29;20214;-76
2022/12/19 04:33:23;;;;;;;0.60;0.60;;;;;;;;;;4894520;29;20362;-76
2022/12/19 04:35:49;;;;;;;0.70;0.70;;;;;;;;;;4884389;29;20219;-76
2022/12/19 04:38:20;;;;;;;1.60;1.27;;;;;;;;;;4889814;29;20536;-75
2022/12/19 04:40:47;;;;;;;0.60;0.60;;;;;;;;;;4893669;29;20680;-77
2022/12/19 04:43:14;;;;;;;0.60;0.50;;;;;;;;;;4880505;29;20203;-77
2022/12/19 04:45:41;;;;;;;1.38;1.25;;;;;;;;;;4880066;29;20262;-77
2022/12/19 04:48:10;;;;;;;0.70;0.70;;;;;;;;;;4895229;29;20222;-78
2022/12/19 04:50:37;;;;;;;1.08;1.08;;;;;;;;;;4892183;29;20680;-78
2022/12/19 04:53:06;;;;;;;0.65;0.65;;;;;;;;;;4891796;29;20210;-76
2022/12/19 04:55:35;;;;;;;1.15;1.15;;;;;;;;;;4884458;29;20217;-76
2022/12/19 04:58:02;;;;;;;0.60;0.60;;;;;;;;;;4891952;29;20210;-76
2022/12/19 05:00:31;;;;;;;0.60;0.52;;;;;;;;;;4894164;29;20215;-77
2022/12/19 05:02:58;;;;;;;1.13;1.02;;;;;;;;;;4888737;29;20227;-77
2022/12/19 05:05:25;;;;;;;0.60;0.60;;;;;;;;;;4895877;29;20241;-77
2022/12/19 05:07:52;;;;;;;0.60;0.50;;;;;;;;;;4888639;29;20196;-78
2022/12/19 05:10:22;;;;;;;1.42;1.33;;;;;;;;;;4897232;29;20210;-78
2022/12/19 05:12:52;;;;;;;0.60;0.60;;;;;;;;;;4905498;29;20578;-77
2022/12/19 05:15:22;;;;;;;0.60;0.50;;;;;;;;;;4895328;29;20239;-77
2022/12/19 05:17:49;;;;;;;1.17;1.13;;;;;;;;;;4888167;29;20318;-79
2022/12/19 05:20:15;;;;;;;0.75;0.75;;;;;;;;;;4891766;29;20219;-78
2022/12/19 05:22:43;;;;;;;0.60;0.60;;;;;;;;;;4884670;29;20210;-78
2022/12/19 05:25:09;;;;;;;0.60;0.50;;;;;;;;;;4893970;29;20207;-77
2022/12/19 05:27:36;;;;;;;0.60;0.50;;;;;;;;;;4886680;29;20206;-80
2022/12/19 05:30:06;;;;;;;0.50;0.50;;;;;;;;;;4888863;29;20231;-77
2022/12/19 05:32:33;;;;;;;0.60;0.60;;;;;;;;;;4896320;29;20333;-78
2022/12/19 05:35:00;;;;;;;0.80;0.80;;;;;;;;;;4895002;29;20238;-78
2022/12/19 05:37:27;;;;;;;0.70;0.70;;;;;;;;;;4895602;29;20680;-79
2022/12/19 05:39:54;;;;;;;0.68;0.68;;;;;;;;;;4887530;29;20278;-79
2022/12/19 05:42:23;;;;;;;0.60;0.50;;;;;;;;;;4891574;29;20222;-80
2022/12/19 05:44:51;;;;;;;1.35;1.25;;;;;;;;;;4873436;29;20625;-78
2022/12/19 05:47:22;;;;;;;0.60;0.60;;;;;;;;;;4911028;29;20227;-78
2022/12/19 05:49:49;;;;;;;1.45;1.35;;;;;;;;;;4905234;29;20303;-78
2022/12/19 05:52:16;;;;;;;0.70;0.60;;;;;;;;;;4910183;29;20210;-76
2022/12/19 05:54:44;;;;;;;0.73;0.73;;;;;;;;;;4894786;29;20206;-78
2022/12/19 05:57:11;;;;;;;0.60;0.60;;;;;;;;;;4884404;29;20212;-78
2022/12/19 05:59:37;;;;;;;0.70;0.70;;;;;;;;;;4899777;29;20211;-79
2022/12/19 06:02:04;;;;;;;0.80;0.80;;;;;;;;;;4889677;29;20775;-78
2022/12/19 06:04:37;;;;;;;0.60;0.60;;;;;;;;;;4897474;29;20695;-79
2022/12/19 06:07:04;;;;;;;2.78;1.20;;;;;;;;;;4896816;29;20359;-78
2022/12/19 06:09:31;;;;;;;0.60;0.50;;;;;;;;;;4893657;29;20199;-79
2022/12/19 06:12:00;;;;;;;0.60;0.50;;;;;;;;;;4884339;29;20283;-80
2022/12/19 06:14:28;;;;;;;1.00;1.00;;;;;;;;;;4897358;29;20266;-78
2022/12/19 06:16:56;;;;;;;0.60;0.50;;;;;;;;;;4894898;29;20215;-77
2022/12/19 06:19:23;;;;;;;0.88;0.88;;;;;;;;;;4895652;29;20264;-78
2022/12/19 06:21:52;;;;;;;0.60;0.60;;;;;;;;;;4892527;29;20656;-77
2022/12/19 06:24:22;;;;;;;1.98;1.88;;;;;;;;;;4890847;29;20653;-78
2022/12/19 06:26:49;;;;;;;0.60;0.57;;;;;;;;;;4889870;29;20555;-77
2022/12/19 06:29:16;;;;;;;0.60;0.50;;;;;;;;;;4880670;29;20204;-77
2022/12/19 06:31:43;;;;;;;0.60;0.55;;;;;;;;;;4895889;29;20195;-77
2022/12/19 06:34:10;;;;;;;0.90;0.90;;;;;;;;;;4882517;29;20286;-78
2022/12/19 06:36:48;;;;;;;0.60;0.50;;;;;;;;;;4895788;29;20731;-78
2022/12/19 06:39:20;;;;;;;0.60;0.60;;;;;;;;;;4895386;29;20321;-77
2022/12/19 06:44:37;;;;;;;0.70;0.70;;;;;;;;;;4888099;29;20239;-78
2022/12/19 06:47:03;;;;;;;0.70;0.70;;;;;;;;;;4890033;29;20617;-77
2022/12/19 06:49:31;;;;;;;1.35;1.25;;;;;;;;;;4890450;29;20302;-79
2022/12/19 06:51:59;;;;;;;1.60;1.50;;;;;;;;;;4889742;29;20724;-80
2022/12/19 06:54:33;;;;;;;0.70;0.70;;;;;;;;;;4892637;29;20207;-78
2022/12/19 06:57:00;;;;;;;0.60;0.50;;;;;;;;;;4894630;29;20891;-78
2022/12/19 06:59:27;;;;;;;0.60;0.50;;;;;;;;;;4906695;29;20637;-78
2022/12/19 07:01:58;;;;;;;0.60;0.50;;;;;;;;;;4898040;29;20699;-79
2022/12/19 07:04:27;;;;;;;0.80;0.80;;;;;;;;;;4895865;29;20207;-81
2022/12/19 07:06:54;;;;;;;0.85;0.85;;;;;;;;;;4898160;29;20205;-80
2022/12/19 07:09:21;;;;;;;1.35;1.35;;;;;;;;;;4901668;29;20613;-79
2022/12/19 07:11:49;;;;;;;0.60;0.50;;;;;;;;;;4892248;29;20205;-79
2022/12/19 07:14:19;;;;;;;0.60;0.50;;;;;;;;;;4907535;29;20545;-80
2022/12/19 07:16:50;;;;;;;0.60;0.50;;;;;;;;;;4893679;29;20217;-79
2022/12/19 07:19:18;;;;;;;0.60;0.50;;;;;;;;;;4889384;29;20631;-80
2022/12/19 07:21:45;;;;;;;0.60;0.60;;;;;;;;;;4883778;29;20302;-79
2022/12/19 07:24:18;;;;;;;0.60;0.50;;;;;;;;;;4891665;29;20458;-80
2022/12/19 07:26:45;;;;;;;0.63;0.63;;;;;;;;;;4904398;29;20222;-79
2022/12/19 07:29:15;;;;;;;1.37;0.97;;;;;;;;;;4900248;29;20241;-81
2022/12/19 07:31:44;;;;;;;0.90;0.90;;;;;;;;;;4894920;29;20445;-79
2022/12/19 07:34:12;;;;;;;0.60;0.50;;;;;;;;;;4878729;29;20514;-80
2022/12/19 07:36:39;;;;;;;0.60;0.60;;;;;;;;;;4895773;29;20570;-81
2022/12/19 07:39:08;;;;;;;0.60;0.60;;;;;;;;;;4882207;29;20295;-80
2022/12/19 07:41:35;;;;;;;0.50;0.50;;;;;;;;;;4896048;29;20461;-80
2022/12/19 07:44:02;;;;;;;0.60;0.50;;;;;;;;;;4889951;29;20455;-80
2022/12/19 07:46:32;;;;;;;0.70;0.70;;;;;;;;;;4899178;29;20988;-78
2022/12/19 07:49:00;;;;;;;0.70;0.70;;;;;;;;;;4895397;29;21018;-80
2022/12/19 07:51:27;;;;;;;4.50;1.33;;;;;;;;;;4890367;29;20218;-80
2022/12/19 07:53:54;;;;;;;0.60;0.60;;;;;;;;;;4896267;29;20925;-80
2022/12/19 07:56:22;;;;;;;0.60;0.50;;;;;;;;;;4892527;29;20480;-81
2022/12/19 07:58:51;;;;;;;0.70;0.70;;;;;;;;;;4906163;29;20445;-80
2022/12/19 08:01:19;;;;;;;1.00;0.90;;;;;;;;;;4893715;29;20439;-80
2022/12/19 08:03:49;;;;;;;0.60;0.60;;;;;;;;;;4896156;29;20230;-79
2022/12/19 08:06:18;;;;;;;1.17;1.07;;;;;;;;;;4878759;29;20494;-81
2022/12/19 08:08:46;;;;;;;1.58;1.02;;;;;;;;;;4892496;29;20453;-80
2022/12/19 08:11:16;;;;;;;0.60;0.60;;;;;;;;;;4888924;29;20214;-79
2022/12/19 08:13:43;;;;;;;0.60;0.60;;;;;;;;;;4893791;29;20199;-80
2022/12/19 08:16:13;;;;;;;0.60;0.50;;;;;;;;;;4889785;29;20512;-80
2022/12/19 08:18:40;;;;;;;1.13;1.13;;;;;;;;;;4893952;29;20534;-80
2022/12/19 08:21:08;;;;;;;0.60;0.60;;;;;;;;;;4885777;29;20442;-81
2022/12/19 08:23:53;;;;;;;1.37;1.03;;;;;;;;;;4890440;29;20455;-80
2022/12/19 08:26:24;;;;;;;0.93;0.73;;;;;;;;;;4889150;29;20462;-81
2022/12/19 08:28:51;;;;;;;1.07;1.07;;;;;;;;;;4888986;29;20207;-81
2022/12/19 08:31:19;;;;;;;0.83;0.83;;;;;;;;;;4886885;29;20450;-80
2022/12/19 08:33:49;;;;;;;0.60;0.60;;;;;;;;;;4891244;29;20474;-80
2022/12/19 08:36:20;;;;;;;0.60;0.53;;;;;;;;;;4893180;29;21022;-81
2022/12/19 08:38:47;;;;;;;1.20;1.10;;;;;;;;;;4894943;29;20452;-81
2022/12/19 08:41:15;;;;;;;0.60;0.50;;;;;;;;;;4894421;29;20459;-81
2022/12/19 08:43:42;;;;;;;1.00;1.00;;;;;;;;;;4892679;29;20539;-79
2022/12/19 08:46:09;;;;;;;0.60;0.60;;;;;;;;;;4884015;29;20558;-78
2022/12/19 08:48:37;;;;;;;0.60;0.60;;;;;;;;;;4894124;29;20574;-77
2022/12/19 08:51:04;;;;;;;0.60;0.60;;;;;;;;;;4892229;29;20443;-79
2022/12/19 08:53:34;;;;;;;0.90;0.90;;;;;;;;;;4894135;29;20455;-80
2022/12/19 08:56:01;;;;;;;1.10;0.90;;;;;;;;;;4889916;29;20550;-80
2022/12/19 08:58:29;;;;;;;0.60;0.50;;;;;;;;;;4894658;29;20952;-80
2022/12/19 09:00:58;;;;;;;1.27;1.03;;;;;;;;;;4891777;29;20519;-81
2022/12/19 09:03:31;;;;;;;1.13;1.03;;;;;;;;;;4902752;29;20962;-81
2022/12/19 09:06:18;;;;;;;0.60;0.60;;;;;;;;;;4895883;29;20962;-82
2022/12/19 09:08:47;;;;;;;1.13;1.13;;;;;;;;;;4898455;29;20459;-80
2022/12/19 09:11:14;;;;;;;0.60;0.60;;;;;;;;;;4882079;29;20861;-80
2022/12/19 09:13:42;;;;;;;0.70;0.70;;;;;;;;;;4892942;29;20458;-84
2022/12/19 09:16:10;;;;;;;2.30;2.20;;;;;;;;;;4900441;29;20543;-80
2022/12/19 09:18:38;;;;;;;0.60;0.50;;;;;;;;;;4878752;29;20474;-81
2022/12/19 09:21:12;;;;;;;0.60;0.60;;;;;;;;;;4891570;29;20434;-80
2022/12/19 09:23:42;;;;;;;1.23;1.00;;;;;;;;;;4886869;29;20448;-79
2022/12/19 09:26:13;;;;;;;0.60;0.50;;;;;;;;;;4897033;29;20463;-78
2022/12/19 09:28:40;;;;;;;0.80;0.80;;;;;;;;;;4894789;29;20862;-80
2022/12/19 09:31:10;;;;;;;0.70;0.70;;;;;;;;;;4898023;29;21008;-79
2022/12/19 09:33:37;;;;;;;0.70;0.70;;;;;;;;;;4897204;29;20483;-80
2022/12/19 09:36:11;;;;;;;0.60;0.50;;;;;;;;;;4894774;29;20514;-80
2022/12/19 09:38:38;;;;;;;0.60;0.50;;;;;;;;;;4891394;29;20494;-80
2022/12/19 09:41:19;;;;;;;0.83;0.83;;;;;;;;;;4895481;29;20816;-78
2022/12/19 09:43:55;;;;;;;0.60;0.50;;;;;;;;;;4883488;29;20463;-78
2022/12/19 09:46:28;;;;;;;1.53;1.43;;;;;;;;;;4889218;29;21008;-78
2022/12/19 09:48:55;;;;;;;0.60;0.50;;;;;;;;;;4898122;29;20474;-79
2022/12/19 09:51:30;;;;;;;0.60;0.60;;;;;;;;;;4895932;29;20543;-80
2022/12/19 09:54:00;;;;;;;0.70;0.70;;;;;;;;;;4911802;29;20458;-79
2022/12/19 09:56:28;;;;;;;0.63;0.60;;;;;;;;;;4905759;29;20478;-80
2022/12/19 09:59:04;;;;;;;0.97;0.97;;;;;;;;;;4887131;29;20435;-79
2022/12/19 10:01:34;;;;;;;2.03;1.93;;;;;;;;;;4895824;29;20546;-81
2022/12/19 10:04:07;;;;;;;0.63;0.63;;;;;;;;;;4885453;29;20468;-80
2022/12/19 10:06:34;;;;;;;0.60;0.60;;;;;;;;;;4901642;29;20459;-78
2022/12/19 10:09:24;;;;;;;1.97;1.83;;;;;;;;;;4888848;29;20455;-78
2022/12/19 10:12:18;;;;;;;1.37;1.27;;;;;;;;;;4892878;29;21005;-78
2022/12/19 10:15:13;;;;;;;2.20;2.10;;;;;;;;;;4894912;29;20448;-78
2022/12/19 10:17:51;;;;;;;0.60;0.60;;;;;;;;;;4883943;29;20494;-79
2022/12/19 10:20:25;;;;;;;0.60;0.50;;;;;;;;;;4874430;29;20847;-80
2022/12/19 10:22:57;;;;;;;0.60;0.60;;;;;;;;;;4895719;29;20442;-78
2022/12/19 10:25:32;;;;;;;0.60;0.60;;;;;;;;;;4883472;29;20459;-78
2022/12/19 10:28:05;;;;;;;1.83;1.73;;;;;;;;;;4893544;29;20443;-78
2022/12/19 10:30:35;;;;;;;2.30;1.67;;;;;;;;;;4887492;29;20807;-78
2022/12/19 10:33:07;;;;;;;1.90;1.80;;;;;;;;;;4888990;29;20482;-79
2022/12/19 10:35:41;;;;;;;0.60;0.60;;;;;;;;;;4893880;29;20511;-79
2022/12/19 10:38:18;;;;;;;0.60;0.60;;;;;;;;;;4880803;29;20476;-79
2022/12/19 10:40:48;;;;;;;0.60;0.57;;;;;;;;;;4887709;29;20435;-79
2022/12/19 10:43:17;;;;;;;0.77;0.77;;;;;;;;;;4887805;29;20477;-80
2022/12/19 10:46:01;;;;;;;0.83;0.83;;;;;;;;;;4901855;29;20487;-78
2022/12/19 10:48:29;;;;;;;0.60;0.50;;;;;;;;;;4886811;29;20467;-77
2022/12/19 10:50:56;;;;;;;0.60;0.60;;;;;;;;;;4889804;29;20822;-78
2022/12/19 10:53:29;;;;;;;0.60;0.50;;;;;;;;;;4889749;29;20450;-80
2022/12/19 10:56:21;;;;;;;0.60;0.60;;;;;;;;;;4892173;29;20908;-77
2022/12/19 10:58:50;;;;;;;0.63;0.63;;;;;;;;;;4894322;29;21033;-78
2022/12/19 11:01:21;;;;;;;0.60;0.50;;;;;;;;;;4890347;29;20439;-79
2022/12/19 11:03:51;;;;;;;0.73;0.70;;;;;;;;;;4889925;29;20473;-77
2022/12/19 11:06:40;;;;;;;0.60;0.60;;;;;;;;;;4893185;29;20447;-78
2022/12/19 11:09:24;;;;;;;0.60;0.50;;;;;;;;;;4891850;29;20435;-76
2022/12/19 11:11:56;;;;;;;1.23;1.13;;;;;;;;;;4894243;29;20498;-77
2022/12/19 11:14:49;;;;;;;0.60;0.50;;;;;;;;;;4892702;29;20454;-77
2022/12/19 11:17:38;;;;;;;0.60;0.60;;;;;;;;;;4891509;29;20890;-76
2022/12/19 11:20:26;;;;;;;0.90;0.90;;;;;;;;;;4887568;29;20526;-79
2022/12/19 11:23:13;;;;;;;1.37;0.93;;;;;;;;;;4880146;29;20469;-77
2022/12/19 11:26:01;;;;;;;1.67;1.57;;;;;;;;;;4896922;29;20467;-79
2022/12/19 11:28:49;;;;;;;0.60;0.60;;;;;;;;;;4904136;29;20451;-78
2022/12/19 11:31:36;;;;;;;0.70;0.70;;;;;;;;;;4890227;29;20495;-78
2022/12/19 11:34:25;;;;;;;0.60;0.50;;;;;;;;;;4875855;29;20447;-78
2022/12/19 11:36:54;;;;;;;0.60;0.50;;;;;;;;;;4886071;29;20569;-79
2022/12/19 11:39:24;;;;;;;0.60;0.60;;;;;;;;;;4895756;29;20954;-79
2022/12/19 11:41:56;;;;;;;3.07;1.70;;;;;;;;;;4893279;29;20559;-79
2022/12/19 11:44:26;;;;;;;0.70;0.70;;;;;;;;;;4903962;29;20456;-78
2022/12/19 11:46:58;;;;;;;1.53;1.43;;;;;;;;;;4903477;29;20447;-78
2022/12/19 11:49:29;;;;;;;1.00;0.90;;;;;;;;;;4880526;29;20452;-76
2022/12/19 11:52:01;;;;;;;1.67;1.57;;;;;;;;;;4894991;29;20571;-76
2022/12/19 11:54:31;;;;;;;0.60;0.60;;;;;;;;;;4882894;29;20519;-76
2022/12/19 11:56:59;;;;;;;0.60;0.60;;;;;;;;;;4890561;29;20482;-75
2022/12/19 11:59:28;;;;;;;0.60;0.60;;;;;;;;;;4895183;29;20479;-76
2022/12/19 12:02:03;;;;;;;1.30;0.90;;;;;;;;;;4905873;29;21080;-77
2022/12/19 12:04:37;;;;;;;4.63;2.30;;;;;;;;;;4894949;29;20450;-76
2022/12/19 12:07:05;;;;;;;0.60;0.50;;;;;;;;;;4885296;29;20454;-78
2022/12/19 12:09:56;;;;;;;0.90;0.90;;;;;;;;;;4893282;29;20535;-76
2022/12/19 12:12:49;;;;;;;0.60;0.60;;;;;;;;;;4891720;29;20473;-76
2022/12/19 12:15:42;;;;;;;0.83;0.83;;;;;;;;;;4880988;29;20467;-77
2022/12/19 12:18:38;;;;;;;0.60;0.60;;;;;;;;;;4895157;29;20483;-77
2022/12/19 12:21:31;;;;;;;0.60;0.57;;;;;;;;;;4884707;29;20441;-76
2022/12/19 12:24:26;;;;;;;0.60;0.60;;;;;;;;;;4886065;29;20466;-77
2022/12/19 12:27:26;;;;;;;0.70;0.70;;;;;;;;;;4895048;29;20439;-76
2022/12/19 12:30:15;;;;;;;0.70;0.70;;;;;;;;;;4880023;29;20488;-77
2022/12/19 12:33:06;;;;;;;0.60;0.60;;;;;;;;;;4891051;29;20818;-76
2022/12/19 12:35:56;;;;;;;0.80;0.80;;;;;;;;;;4887606;29;20439;-76
2022/12/19 12:38:54;;;;;;;0.70;0.70;;;;;;;;;;4899222;29;20468;-76
2022/12/19 12:44:16;;;;;;;0.80;0.80;;;;;;;;;;4887050;29;20471;-77
2022/12/19 12:46:48;;;;;;;0.60;0.60;;;;;;;;;;4887713;29;20437;-77
2022/12/19 12:49:22;;;;;;;0.60;0.60;;;;;;;;;;4906355;29;20503;-76
2022/12/19 12:51:50;;;;;;;0.90;0.90;;;;;;;;;;4895432;29;20444;-76
2022/12/19 12:54:18;;;;;;;1.20;1.10;;;;;;;;;;4886141;29;20512;-77
2022/12/19 12:56:45;;;;;;;0.60;0.60;;;;;;;;;;4897576;29;20445;-76
2022/12/19 12:59:20;;;;;;;0.60;0.60;;;;;;;;;;4896011;29;20448;-76
2022/12/19 13:01:54;;;;;;;3.03;2.30;;;;;;;;;;4885812;29;20493;-76
2022/12/19 13:04:31;;;;;;;2.50;1.00;;;;;;;;;;4886927;29;20506;-76
2022/12/19 13:07:10;;;;;;;1.10;1.00;;;;;;;;;;4896510;29;20870;-78
2022/12/19 13:09:39;;;;;;;0.60;0.60;;;;;;;;;;4892081;29;20439;-76
2022/12/19 13:15:16;;;;;;;0.73;0.73;;;;;;;;;;4905179;29;20523;-77
2022/12/19 13:17:58;;;;;;;0.63;0.60;;;;;;;;;;4886011;29;20494;-76
2022/12/19 13:20:39;;;;;;;1.27;1.17;;;;;;;;;;4896837;29;21005;-76
2022/12/19 13:23:19;;;;;;;1.47;1.37;;;;;;;;;;4893450;29;20455;-75
2022/12/19 13:25:49;;;;;;;0.60;0.60;;;;;;;;;;4885629;29;20462;-78
2022/12/19 13:28:35;;;;;;;0.60;0.60;;;;;;;;;;4887284;29;20784;-76
2022/12/19 13:31:13;;;;;;;0.60;0.57;;;;;;;;;;4884720;29;20815;-76
2022/12/19 13:34:06;;;;;;;0.60;0.60;;;;;;;;;;4898557;29;20477;-76
2022/12/19 13:36:50;;;;;;;0.60;0.50;;;;;;;;;;4894886;29;20459;-76
2022/12/19 13:39:42;;;;;;;0.60;0.60;;;;;;;;;;4887231;29;20800;-75
2022/12/19 13:45:36;;;;;;;0.60;0.60;;;;;;;;;;4882711;29;20557;-75
2022/12/19 13:48:10;;;;;;;0.70;0.70;;;;;;;;;;4908717;29;20525;-76
2022/12/19 13:50:39;;;;;;;0.60;0.60;;;;;;;;;;4893697;29;20453;-75
2022/12/19 13:53:08;;;;;;;0.60;0.60;;;;;;;;;;4910409;29;20435;-76
2022/12/19 13:55:38;;;;;;;0.60;0.60;;;;;;;;;;4892433;29;20470;-76
2022/12/19 13:58:19;;;;;;;0.60;0.50;;;;;;;;;;4888133;29;20473;-75
2022/12/19 14:00:55;;;;;;;0.80;0.80;;;;;;;;;;4899280;29;20464;-75
2022/12/19 14:03:25;;;;;;;0.60;0.60;;;;;;;;;;4889763;29;20488;-74
2022/12/19 14:05:57;;;;;;;0.60;0.60;;;;;;;;;;4893321;29;20514;-73
2022/12/19 14:08:44;;;;;;;0.70;0.60;;;;;;;;;;4886219;29;20945;-75
2022/12/19 14:11:16;;;;;;;0.60;0.60;;;;;;;;;;4889694;29;20506;-74
2022/12/19 14:16:55;;;;;;;0.60;0.60;;;;;;;;;;4892585;29;20433;-75
2022/12/19 14:19:22;;;;;;;0.87;0.77;;;;;;;;;;4895071;29;20510;-76
2022/12/19 14:21:50;;;;;;;0.60;0.60;;;;;;;;;;4886458;29;20514;-75
2022/12/19 14:24:38;;;;;;;0.80;0.80;;;;;;;;;;4884400;29;20803;-76
2022/12/19 14:27:06;;;;;;;0.60;0.60;;;;;;;;;;4895651;29;20529;-76
2022/12/19 14:29:58;;;;;;;0.70;0.70;;;;;;;;;;4887002;29;20448;-75
2022/12/19 14:32:46;;;;;;;0.83;0.83;;;;;;;;;;4877976;29;20474;-74
2022/12/19 14:35:35;;;;;;;1.07;1.07;;;;;;;;;;4903070;29;20461;-74
2022/12/19 14:38:23;;;;;;;1.00;0.80;;;;;;;;;;4891268;29;20461;-72
2022/12/19 14:43:37;;;;;;;2.70;2.50;;;;;;;;;;4883283;29;20547;-74
2022/12/19 14:44:03;;;;;;;0.60;0.60;;;;;;;;;;4887692;29;20481;-75
2022/12/19 14:47:04;;;;;;;1.00;0.90;;;;;;;;;;4896497;29;20477;-75
2022/12/19 14:49:51;;;;;;;1.00;0.90;;;;;;;;;;4899893;29;20453;-74
2022/12/19 14:52:39;;;;;;;0.60;0.60;;;;;;;;;;4894179;29;20451;-76
2022/12/19 14:55:28;;;;;;;0.60;0.60;;;;;;;;;;4893412;29;20444;-73
2022/12/19 14:58:16;;;;;;;0.60;0.60;;;;;;;;;;4889198;29;20491;-73
2022/12/19 15:01:05;;;;;;;0.60;0.60;;;;;;;;;;4886344;29;20795;-76
2022/12/19 15:03:44;;;;;;;0.60;0.60;;;;;;;;;;4894103;29;20524;-73
2022/12/19 15:06:32;;;;;;;0.70;0.70;;;;;;;;;;4892485;29;20544;-72
2022/12/19 15:09:19;;;;;;;0.60;0.60;;;;;;;;;;4874436;29;20835;-73
2022/12/19 15:15:19;;;;;;;0.60;0.60;;;;;;;;;;4900147;29;20460;-76
2022/12/19 15:17:48;;;;;;;0.80;0.70;;;;;;;;;;4896870;29;20462;-74
2022/12/19 15:20:16;;;;;;;0.60;0.60;;;;;;;;;;4889333;29;21018;-74
2022/12/19 15:22:43;;;;;;;0.60;0.60;;;;;;;;;;4888622;29;20528;-75
2022/12/19 15:25:12;;;;;;;0.60;0.60;;;;;;;;;;4886164;29;20467;-76
2022/12/19 15:27:59;;;;;;;1.10;0.87;;;;;;;;;;4891363;29;20441;-75
2022/12/19 15:30:31;;;;;;;0.60;0.60;;;;;;;;;;4895787;29;20539;-76
2022/12/19 15:32:57;;;;;;;0.60;0.60;;;;;;;;;;4890272;29;20981;-75
2022/12/19 15:35:25;;;;;;;0.77;0.77;;;;;;;;;;4895203;29;20455;-74
2022/12/19 15:37:52;;;;;;;0.60;0.60;;;;;;;;;;4893259;29;20938;-75
2022/12/19 15:40:19;;;;;;;0.60;0.60;;;;;;;;;;4893531;29;20991;-76